createdAt,value
2023-03-04T00:00:05.589Z,73352.91
2023-03-04T00:00:46.504Z,73352.91
2023-03-04T00:01:18.809Z,73352.91
2023-03-04T00:01:51.126Z,73354.91
2023-03-04T00:02:23.440Z,73356.91
2023-03-04T00:02:58.330Z,73356.91
2023-03-04T00:03:33.222Z,73352.91
2023-03-04T00:04:05.829Z,73346.94
2023-03-04T00:04:40.694Z,73352.91
2023-03-04T00:05:12.990Z,73356.91
2023-03-04T00:05:45.243Z,73354.91
2023-03-04T00:06:20.092Z,73356.91
2023-03-04T00:06:52.348Z,73352.91
2023-03-04T00:07:24.607Z,73358.91
2023-03-04T00:07:59.435Z,73360.91
2023-03-04T00:08:31.719Z,73356.91
2023-03-04T00:09:04.844Z,73356.91
2023-03-04T00:09:39.874Z,73356.91
2023-03-04T00:10:12.580Z,73356.91
2023-03-04T00:10:44.849Z,73360.91
2023-03-04T00:11:19.723Z,73364.88
2023-03-04T00:11:51.963Z,73354.91
2023-03-04T00:12:24.275Z,73354.91
2023-03-04T00:12:59.104Z,73360.91
2023-03-04T00:13:31.513Z,73360.91
2023-03-04T00:14:03.756Z,73356.91
2023-03-04T00:14:36.010Z,73356.91
2023-03-04T00:15:12.179Z,73358.91
2023-03-04T00:15:44.472Z,73356.91
2023-03-04T00:16:16.952Z,73356.91
2023-03-04T00:16:51.950Z,73360.91
2023-03-04T00:17:24.343Z,73360.91
2023-03-04T00:17:56.643Z,73368.88
2023-03-04T00:18:31.560Z,73360.91
2023-03-04T00:19:06.427Z,73362.91
2023-03-04T00:19:38.713Z,73364.88
2023-03-04T00:20:15.028Z,73362.91
2023-03-04T00:20:47.329Z,73364.88
2023-03-04T00:21:19.621Z,73360.91
2023-03-04T00:21:51.854Z,73368.88
2023-03-04T00:22:26.728Z,73360.91
2023-03-04T00:22:58.975Z,73370.88
2023-03-04T00:23:31.299Z,73358.91
2023-03-04T00:24:06.408Z,73360.91
2023-03-04T00:24:38.680Z,73360.91
2023-03-04T00:25:10.955Z,73362.91
2023-03-04T00:25:43.738Z,73368.88
2023-03-04T00:26:18.753Z,73368.88
2023-03-04T00:26:52.060Z,73368.88
2023-03-04T00:27:24.316Z,73364.88
2023-03-04T00:27:58.398Z,73362.91
2023-03-04T00:28:34.236Z,73372.88
2023-03-04T00:29:06.540Z,73368.88
2023-03-04T00:29:39.080Z,73366.88
2023-03-04T00:30:14.964Z,73364.88
2023-03-04T00:30:48.121Z,73370.88
2023-03-04T00:31:20.487Z,73372.88
2023-03-04T00:31:55.533Z,73368.88
2023-03-04T00:32:28.047Z,73368.88
2023-03-04T00:33:00.305Z,73364.88
2023-03-04T00:33:32.632Z,73366.88
2023-03-04T00:34:10.152Z,73364.88
2023-03-04T00:34:43.281Z,73366.88
2023-03-04T00:35:16.034Z,73364.88
2023-03-04T00:35:50.971Z,73372.88
2023-03-04T00:36:23.245Z,73370.88
2023-03-04T00:37:01.268Z,73366.88
2023-03-04T00:37:36.294Z,73372.88
2023-03-04T00:38:08.765Z,73372.88
2023-03-04T00:38:41.653Z,73372.88
2023-03-04T00:39:17.160Z,73364.88
2023-03-04T00:39:49.402Z,73368.88
2023-03-04T00:40:21.699Z,73368.88
2023-03-04T00:40:56.800Z,73368.88
2023-03-04T00:41:29.068Z,73370.88
2023-03-04T00:42:01.400Z,73368.88
2023-03-04T00:42:36.312Z,73372.88
2023-03-04T00:43:08.590Z,73368.88
2023-03-04T00:43:40.879Z,73364.88
2023-03-04T00:44:15.741Z,73368.88
2023-03-04T00:44:49.711Z,73364.88
2023-03-04T00:45:21.947Z,73368.88
2023-03-04T00:45:56.810Z,73364.88
2023-03-04T00:46:29.064Z,73368.88
2023-03-04T00:47:01.314Z,73368.88
2023-03-04T00:47:36.218Z,73372.88
2023-03-04T00:48:08.715Z,73364.88
2023-03-04T00:48:41.094Z,73360.91
2023-03-04T00:49:18.585Z,73364.88
2023-03-04T00:49:50.835Z,73368.88
2023-03-04T00:50:23.571Z,73374.88
2023-03-04T00:50:55.993Z,73372.88
2023-03-04T00:51:30.897Z,73364.88
2023-03-04T00:52:03.158Z,73364.88
2023-03-04T00:52:35.430Z,73368.88
2023-03-04T00:53:10.350Z,73368.88
2023-03-04T00:53:43.293Z,73366.88
2023-03-04T00:54:15.536Z,73364.88
2023-03-04T00:54:50.363Z,73368.88
2023-03-04T00:55:22.646Z,73364.88
2023-03-04T00:55:54.882Z,73372.88
2023-03-04T00:56:29.739Z,73360.91
2023-03-04T00:57:01.972Z,73364.88
2023-03-04T00:57:34.208Z,73364.88
2023-03-04T00:58:06.533Z,73364.88
2023-03-04T00:58:41.599Z,73364.88
2023-03-04T00:59:13.820Z,73366.88
2023-03-04T00:59:46.504Z,73362.91
2023-03-04T01:00:22.348Z,73364.88
2023-03-04T01:00:54.750Z,73360.91
2023-03-04T01:01:27.202Z,73368.88
2023-03-04T01:02:02.145Z,73366.88
2023-03-04T01:02:35.685Z,73364.88
2023-03-04T01:03:08.003Z,73362.91
2023-03-04T01:03:43.535Z,73358.91
2023-03-04T01:04:18.771Z,73364.88
2023-03-04T01:04:51.191Z,73360.91
2023-03-04T01:05:26.094Z,73360.91
2023-03-04T01:05:59.572Z,73360.91
2023-03-04T01:06:31.819Z,73362.91
2023-03-04T01:07:06.760Z,73364.88
2023-03-04T01:07:39.304Z,73364.88
2023-03-04T01:08:14.141Z,73362.91
2023-03-04T01:08:46.416Z,73368.88
2023-03-04T01:09:19.481Z,73374.88
2023-03-04T01:09:54.300Z,73368.88
2023-03-04T01:10:26.539Z,73368.88
2023-03-04T01:10:58.804Z,73364.88
2023-03-04T01:11:31.132Z,73370.88
2023-03-04T01:12:06.374Z,73368.88
2023-03-04T01:12:40.279Z,73364.88
2023-03-04T01:13:12.568Z,73370.88
2023-03-04T01:13:47.421Z,73366.88
2023-03-04T01:14:19.804Z,73372.88
2023-03-04T01:14:52.095Z,73368.88
2023-03-04T01:15:27.165Z,73364.88
2023-03-04T01:15:59.556Z,73372.88
2023-03-04T01:16:31.909Z,73366.88
2023-03-04T01:17:06.934Z,73372.88
2023-03-04T01:17:39.229Z,73366.88
2023-03-04T01:18:11.664Z,73360.91
2023-03-04T01:18:47.652Z,73368.88
2023-03-04T01:19:22.645Z,73360.91
2023-03-04T01:19:54.893Z,73368.88
2023-03-04T01:20:29.772Z,73368.88
2023-03-04T01:21:02.036Z,73362.91
2023-03-04T01:21:35.097Z,73364.88
2023-03-04T01:22:10.920Z,73368.88
2023-03-04T01:22:43.200Z,73368.88
2023-03-04T01:23:15.548Z,73362.91
2023-03-04T01:23:50.514Z,73364.88
2023-03-04T01:24:22.836Z,73368.88
2023-03-04T01:24:55.083Z,73366.88
2023-03-04T01:25:27.336Z,73362.91
2023-03-04T01:26:02.410Z,73368.88
2023-03-04T01:26:34.785Z,73368.88
2023-03-04T01:27:07.223Z,73364.88
2023-03-04T01:27:42.096Z,73370.88
2023-03-04T01:28:14.415Z,73368.88
2023-03-04T01:28:46.796Z,73368.88
2023-03-04T01:29:21.664Z,73366.88
2023-03-04T01:29:53.919Z,73368.88
2023-03-04T01:30:28.007Z,73364.88
2023-03-04T01:31:04.690Z,73364.88
2023-03-04T01:31:37.026Z,73360.91
2023-03-04T01:32:09.308Z,73360.91
2023-03-04T01:32:44.382Z,73360.91
2023-03-04T01:33:17.720Z,73364.88
2023-03-04T01:33:49.980Z,73356.91
2023-03-04T01:34:27.521Z,73356.91
2023-03-04T01:34:59.751Z,73364.88
2023-03-04T01:35:32.031Z,73356.91
2023-03-04T01:36:07.825Z,73358.91
2023-03-04T01:36:40.091Z,73360.91
2023-03-04T01:37:13.705Z,73358.91
2023-03-04T01:37:48.569Z,73356.91
2023-03-04T01:38:20.830Z,73364.88
2023-03-04T01:38:53.143Z,73362.91
2023-03-04T01:39:28.005Z,73358.91
2023-03-04T01:40:00.269Z,73360.91
2023-03-04T01:40:32.695Z,73358.91
2023-03-04T01:41:08.181Z,73360.91
2023-03-04T01:41:40.443Z,73360.91
2023-03-04T01:42:18.392Z,73364.88
2023-03-04T01:42:53.265Z,73366.88
2023-03-04T01:43:27.757Z,73362.91
2023-03-04T01:44:02.416Z,73360.91
2023-03-04T01:44:37.324Z,73360.91
2023-03-04T01:45:13.296Z,73360.91
2023-03-04T01:45:45.567Z,73364.88
2023-03-04T01:46:21.959Z,73352.91
2023-03-04T01:46:55.144Z,73356.91
2023-03-04T01:47:29.469Z,73360.91
2023-03-04T01:48:04.765Z,73356.91
2023-03-04T01:48:38.365Z,73358.91
2023-03-04T01:49:10.787Z,73358.91
2023-03-04T01:49:46.224Z,73356.91
2023-03-04T01:50:25.148Z,73358.91
2023-03-04T01:50:59.334Z,73352.91
2023-03-04T01:51:31.709Z,73352.91
2023-03-04T01:52:06.662Z,73352.91
2023-03-04T01:52:39.733Z,73350.91
2023-03-04T01:53:20.296Z,73356.91
2023-03-04T01:53:55.049Z,73356.91
2023-03-04T01:54:27.310Z,73356.91
2023-03-04T01:55:02.265Z,73360.91
2023-03-04T01:55:34.527Z,73344.94
2023-03-04T01:56:13.696Z,73352.91
2023-03-04T01:56:49.945Z,73352.91
2023-03-04T01:57:25.038Z,73350.91
2023-03-04T01:57:57.644Z,73352.91
2023-03-04T01:58:34.056Z,73350.91
2023-03-04T01:59:11.150Z,73348.91
2023-03-04T01:59:43.598Z,73348.91
2023-03-04T02:00:23.534Z,73352.91
2023-03-04T02:00:55.855Z,73348.91
2023-03-04T02:01:28.140Z,73348.91
2023-03-04T02:02:03.518Z,73340.94
2023-03-04T02:02:35.769Z,73340.94
2023-03-04T02:03:11.540Z,73344.94
2023-03-04T02:03:46.408Z,73344.94
2023-03-04T02:04:20.111Z,73346.94
2023-03-04T02:04:55.424Z,73350.91
2023-03-04T02:05:30.669Z,73344.94
2023-03-04T02:06:02.962Z,73346.94
2023-03-04T02:06:35.743Z,73352.91
2023-03-04T02:07:10.826Z,73348.91
2023-03-04T02:07:43.467Z,73344.94
2023-03-04T02:08:19.326Z,73350.91
2023-03-04T02:08:51.563Z,73348.91
2023-03-04T02:09:24.051Z,73344.94
2023-03-04T02:09:58.933Z,73348.91
2023-03-04T02:10:31.588Z,73352.91
2023-03-04T02:11:03.968Z,73348.91
2023-03-04T02:11:39.513Z,73344.94
2023-03-04T02:12:11.843Z,73346.94
2023-03-04T02:12:44.780Z,73348.91
2023-03-04T02:13:20.366Z,73352.91
2023-03-04T02:13:52.816Z,73348.91
2023-03-04T02:14:26.097Z,73350.91
2023-03-04T02:15:00.957Z,73352.91
2023-03-04T02:15:33.245Z,73348.91
2023-03-04T02:16:08.442Z,73350.91
2023-03-04T02:16:40.800Z,73352.91
2023-03-04T02:17:13.820Z,73348.91
2023-03-04T02:17:49.005Z,73352.91
2023-03-04T02:18:22.465Z,73350.91
2023-03-04T02:18:55.240Z,73352.91
2023-03-04T02:19:39.859Z,73350.91
2023-03-04T02:20:24.022Z,73348.91
2023-03-04T02:21:03.302Z,73352.91
2023-03-04T02:21:38.297Z,73354.91
2023-03-04T02:22:10.725Z,73360.91
2023-03-04T02:22:48.532Z,73350.91
2023-03-04T02:23:28.381Z,73358.91
2023-03-04T02:24:06.130Z,73356.91
2023-03-04T02:24:44.465Z,73358.91
2023-03-04T02:25:21.160Z,73356.91
2023-03-04T02:26:16.733Z,73356.91
2023-03-04T02:26:49.556Z,73360.91
2023-03-04T02:27:22.723Z,73360.91
2023-03-04T02:27:57.912Z,73356.91
2023-03-04T02:28:30.349Z,73356.91
2023-03-04T02:29:06.686Z,73354.91
2023-03-04T02:29:39.686Z,73356.91
2023-03-04T02:30:13.733Z,73360.91
2023-03-04T02:30:46.382Z,73358.91
2023-03-04T02:31:27.347Z,73356.91
2023-03-04T02:32:00.940Z,73358.91
2023-03-04T02:32:33.378Z,73360.91
2023-03-04T02:33:05.734Z,73356.91
2023-03-04T02:33:40.593Z,73364.88
2023-03-04T02:34:14.864Z,73358.91
2023-03-04T02:34:49.357Z,73368.88
2023-03-04T02:35:22.140Z,73364.88
2023-03-04T02:35:57.080Z,73368.88
2023-03-04T02:36:30.290Z,73364.88
2023-03-04T02:37:03.284Z,73364.88
2023-03-04T02:37:39.521Z,73362.91
2023-03-04T02:38:12.300Z,73360.91
2023-03-04T02:38:44.611Z,73362.91
2023-03-04T02:39:26.480Z,73364.88
2023-03-04T02:39:59.712Z,73360.91
2023-03-04T02:40:33.805Z,73364.88
2023-03-04T02:41:13.549Z,73364.88
2023-03-04T02:41:47.357Z,73364.88
2023-03-04T02:42:20.804Z,73364.88
2023-03-04T02:42:55.649Z,73360.91
2023-03-04T02:43:29.460Z,73364.88
2023-03-04T02:44:01.730Z,73364.88
2023-03-04T02:44:38.341Z,73372.88
2023-03-04T02:45:31.047Z,73368.88
2023-03-04T02:46:03.302Z,73362.91
2023-03-04T02:46:38.191Z,73366.88
2023-03-04T02:47:11.980Z,73366.88
2023-03-04T02:47:44.243Z,73360.91
2023-03-04T02:48:21.799Z,73360.91
2023-03-04T02:48:54.421Z,73364.88
2023-03-04T02:49:28.621Z,73368.88
2023-03-04T02:50:01.613Z,73370.88
2023-03-04T02:50:39.813Z,73372.88
2023-03-04T02:51:12.194Z,73368.88
2023-03-04T02:51:44.447Z,73372.88
2023-03-04T02:52:22.809Z,73368.88
2023-03-04T02:52:55.070Z,73368.88
2023-03-04T02:53:27.421Z,73364.88
2023-03-04T02:54:02.578Z,73368.88
2023-03-04T02:54:35.261Z,73368.88
2023-03-04T02:55:09.429Z,73368.88
2023-03-04T02:55:44.850Z,73360.91
2023-03-04T02:56:20.425Z,73356.91
2023-03-04T02:56:54.805Z,73364.88
2023-03-04T02:57:31.094Z,73360.91
2023-03-04T02:58:03.849Z,73360.91
2023-03-04T02:58:38.798Z,73360.91
2023-03-04T02:59:11.092Z,73364.88
2023-03-04T02:59:43.888Z,73360.91
2023-03-04T03:00:24.148Z,73360.91
2023-03-04T03:00:57.852Z,73360.91
2023-03-04T03:01:32.913Z,73364.88
2023-03-04T03:02:08.392Z,73360.91
2023-03-04T03:02:40.772Z,73362.91
2023-03-04T03:03:13.100Z,73364.88
2023-03-04T03:03:48.021Z,73364.88
2023-03-04T03:04:21.277Z,73360.91
2023-03-04T03:04:54.800Z,73362.91
2023-03-04T03:05:31.094Z,73354.91
2023-03-04T03:06:03.564Z,73354.91
2023-03-04T03:06:35.949Z,73358.91
2023-03-04T03:07:10.883Z,73356.91
2023-03-04T03:07:43.828Z,73360.91
2023-03-04T03:08:16.840Z,73356.91
2023-03-04T03:08:51.715Z,73356.91
2023-03-04T03:09:24.889Z,73354.91
2023-03-04T03:09:57.165Z,73362.91
2023-03-04T03:10:32.196Z,73356.91
2023-03-04T03:11:05.014Z,73360.91
2023-03-04T03:11:41.126Z,73360.91
2023-03-04T03:12:16.762Z,73362.91
2023-03-04T03:12:50.073Z,73364.88
2023-03-04T03:13:22.333Z,73364.88
2023-03-04T03:13:57.294Z,73356.91
2023-03-04T03:14:29.827Z,73360.91
2023-03-04T03:15:02.413Z,73362.91
2023-03-04T03:15:34.683Z,73358.91
2023-03-04T03:16:10.070Z,73360.91
2023-03-04T03:16:43.370Z,73356.91
2023-03-04T03:17:16.600Z,73362.91
2023-03-04T03:17:51.578Z,73366.88
2023-03-04T03:18:23.816Z,73360.91
2023-03-04T03:18:56.049Z,73366.88
2023-03-04T03:19:32.214Z,73356.91
2023-03-04T03:20:07.957Z,73360.91
2023-03-04T03:20:40.265Z,73362.91
2023-03-04T03:21:15.857Z,73368.88
2023-03-04T03:21:48.134Z,73368.88
2023-03-04T03:22:20.397Z,73368.88
2023-03-04T03:22:55.820Z,73368.88
2023-03-04T03:23:28.047Z,73368.88
2023-03-04T03:24:00.324Z,73372.88
2023-03-04T03:24:35.230Z,73368.88
2023-03-04T03:25:09.827Z,73364.88
2023-03-04T03:25:42.183Z,73368.88
2023-03-04T03:26:17.213Z,73374.88
2023-03-04T03:26:52.463Z,73366.88
2023-03-04T03:27:25.069Z,73376.88
2023-03-04T03:27:59.957Z,73366.88
2023-03-04T03:28:32.516Z,73364.88
2023-03-04T03:29:05.872Z,73372.88
2023-03-04T03:29:40.731Z,73366.88
2023-03-04T03:30:15.250Z,73372.88
2023-03-04T03:30:50.119Z,73368.88
2023-03-04T03:31:22.386Z,73368.88
2023-03-04T03:31:54.808Z,73368.88
2023-03-04T03:32:27.195Z,73372.88
2023-03-04T03:33:02.135Z,73368.88
2023-03-04T03:33:34.426Z,73372.88
2023-03-04T03:34:06.808Z,73368.88
2023-03-04T03:34:39.143Z,73372.88
2023-03-04T03:35:14.031Z,73368.88
2023-03-04T03:35:47.832Z,73376.88
2023-03-04T03:36:20.143Z,73368.88
2023-03-04T03:36:55.074Z,73368.88
2023-03-04T03:37:27.524Z,73368.88
2023-03-04T03:38:02.395Z,73368.88
2023-03-04T03:38:34.938Z,73368.88
2023-03-04T03:39:07.221Z,73368.88
2023-03-04T03:39:39.441Z,73368.88
2023-03-04T03:40:16.219Z,73372.88
2023-03-04T03:40:48.509Z,73368.88
2023-03-04T03:41:20.804Z,73368.88
2023-03-04T03:41:55.687Z,73368.88
2023-03-04T03:42:31.529Z,73376.88
2023-03-04T03:43:03.880Z,73374.88
2023-03-04T03:43:36.109Z,73374.88
2023-03-04T03:44:10.964Z,73374.88
2023-03-04T03:44:43.240Z,73376.88
2023-03-04T03:45:15.735Z,73368.88
2023-03-04T03:45:52.021Z,73368.88
2023-03-04T03:46:24.473Z,73376.88
2023-03-04T03:46:56.806Z,73376.88
2023-03-04T03:47:31.712Z,73368.88
2023-03-04T03:48:04.415Z,73374.88
2023-03-04T03:48:36.691Z,73376.88
2023-03-04T03:49:11.720Z,73370.88
2023-03-04T03:49:44.063Z,73372.88
2023-03-04T03:50:17.047Z,73368.88
2023-03-04T03:50:51.899Z,73374.88
2023-03-04T03:51:24.137Z,73372.88
2023-03-04T03:51:56.420Z,73372.88
2023-03-04T03:52:31.262Z,73376.88
2023-03-04T03:53:03.850Z,73374.88
2023-03-04T03:53:36.168Z,73374.88
2023-03-04T03:54:11.170Z,73376.88
2023-03-04T03:54:43.552Z,73372.88
2023-03-04T03:55:18.568Z,73374.88
2023-03-04T03:55:50.818Z,73374.88
2023-03-04T03:56:23.049Z,73372.88
2023-03-04T03:56:57.878Z,73374.88
2023-03-04T03:57:32.865Z,73376.88
2023-03-04T03:58:05.247Z,73372.88
2023-03-04T03:58:37.493Z,73368.88
2023-03-04T03:59:12.345Z,73376.88
2023-03-04T03:59:44.660Z,73372.88
2023-03-04T04:00:18.038Z,73372.88
2023-03-04T04:00:52.927Z,73372.88
2023-03-04T04:01:25.205Z,73368.88
2023-03-04T04:01:57.489Z,73368.88
2023-03-04T04:02:32.472Z,73364.88
2023-03-04T04:03:04.817Z,73368.88
2023-03-04T04:03:37.091Z,73370.88
2023-03-04T04:04:11.960Z,73368.88
2023-03-04T04:04:44.225Z,73370.88
2023-03-04T04:05:16.578Z,73364.88
2023-03-04T04:05:51.456Z,73366.88
2023-03-04T04:06:23.725Z,73372.88
2023-03-04T04:06:55.971Z,73364.88
2023-03-04T04:07:30.813Z,73368.88
2023-03-04T04:08:03.072Z,73372.88
2023-03-04T04:08:35.430Z,73364.88
2023-03-04T04:09:10.379Z,73364.88
2023-03-04T04:09:42.630Z,73372.88
2023-03-04T04:10:14.896Z,73364.88
2023-03-04T04:10:49.816Z,73364.88
2023-03-04T04:11:22.248Z,73372.88
2023-03-04T04:11:54.534Z,73370.88
2023-03-04T04:12:31.981Z,73372.88
2023-03-04T04:13:04.292Z,73370.88
2023-03-04T04:13:39.138Z,73374.88
2023-03-04T04:14:15.064Z,73368.88
2023-03-04T04:14:47.319Z,73370.88
2023-03-04T04:15:19.598Z,73372.88
2023-03-04T04:15:54.565Z,73368.88
2023-03-04T04:16:26.943Z,73366.88
2023-03-04T04:16:59.294Z,73360.91
2023-03-04T04:17:34.175Z,73368.88
2023-03-04T04:18:06.929Z,73364.88
2023-03-04T04:18:39.212Z,73368.88
2023-03-04T04:19:19.633Z,73368.88
2023-03-04T04:19:51.867Z,73370.88
2023-03-04T04:20:26.146Z,73368.88
2023-03-04T04:21:01.229Z,73372.88
2023-03-04T04:21:33.627Z,73364.88
2023-03-04T04:22:05.853Z,73368.88
2023-03-04T04:22:40.732Z,73360.91
2023-03-04T04:23:13.073Z,73364.88
2023-03-04T04:23:45.318Z,73364.88
2023-03-04T04:24:20.232Z,73372.88
2023-03-04T04:24:52.521Z,73366.88
2023-03-04T04:25:24.815Z,73370.88
2023-03-04T04:26:00.295Z,73372.88
2023-03-04T04:26:32.553Z,73372.88
2023-03-04T04:27:04.995Z,73366.88
2023-03-04T04:27:42.455Z,73368.88
2023-03-04T04:28:14.728Z,73372.88
2023-03-04T04:28:46.972Z,73372.88
2023-03-04T04:29:23.257Z,73364.88
2023-03-04T04:29:55.494Z,73364.88
2023-03-04T04:30:27.758Z,73368.88
2023-03-04T04:31:02.732Z,73366.88
2023-03-04T04:31:35.001Z,73370.88
2023-03-04T04:32:07.575Z,73372.88
2023-03-04T04:32:42.462Z,73368.88
2023-03-04T04:33:14.716Z,73366.88
2023-03-04T04:33:46.969Z,73368.88
2023-03-04T04:34:19.311Z,73374.88
2023-03-04T04:34:54.162Z,73364.88
2023-03-04T04:35:26.591Z,73366.88
2023-03-04T04:36:01.402Z,73368.88
2023-03-04T04:36:36.289Z,73364.88
2023-03-04T04:37:08.665Z,73372.88
2023-03-04T04:37:40.928Z,73368.88
2023-03-04T04:38:15.873Z,73368.88
2023-03-04T04:38:49.471Z,73370.88
2023-03-04T04:39:21.747Z,73364.88
2023-03-04T04:39:57.498Z,73364.88
2023-03-04T04:40:29.804Z,73370.88
2023-03-04T04:41:02.073Z,73372.88
2023-03-04T04:41:40.152Z,73368.88
2023-03-04T04:42:12.481Z,73368.88
2023-03-04T04:42:47.344Z,73368.88
2023-03-04T04:43:22.189Z,73360.91
2023-03-04T04:43:54.470Z,73356.91
2023-03-04T04:44:26.712Z,73364.88
2023-03-04T04:45:01.569Z,73368.88
2023-03-04T04:45:34.628Z,73364.88
2023-03-04T04:46:06.959Z,73368.88
2023-03-04T04:46:42.624Z,73360.91
2023-03-04T04:47:14.922Z,73368.88
2023-03-04T04:47:47.176Z,73364.88
2023-03-04T04:48:22.038Z,73364.88
2023-03-04T04:48:54.272Z,73362.91
2023-03-04T04:49:26.508Z,73372.88
2023-03-04T04:50:01.378Z,73364.88
2023-03-04T04:50:33.618Z,73364.88
2023-03-04T04:51:06.303Z,73368.88
2023-03-04T04:51:41.631Z,73372.88
2023-03-04T04:52:13.869Z,73372.88
2023-03-04T04:52:46.134Z,73368.88
2023-03-04T04:53:20.977Z,73372.88
2023-03-04T04:53:53.237Z,73374.88
2023-03-04T04:54:25.731Z,73376.88
2023-03-04T04:55:00.568Z,73372.88
2023-03-04T04:55:34.347Z,73376.88
2023-03-04T04:56:10.857Z,73376.88
2023-03-04T04:56:45.787Z,73376.88
2023-03-04T04:57:18.040Z,73380.88
2023-03-04T04:57:52.922Z,73372.88
2023-03-04T04:58:27.823Z,73378.88
2023-03-04T04:59:03.032Z,73372.88
2023-03-04T04:59:37.890Z,73374.88
2023-03-04T05:00:11.948Z,73376.88
2023-03-04T05:00:44.197Z,73380.88
2023-03-04T05:01:19.375Z,73372.88
2023-03-04T05:01:51.659Z,73382.84
2023-03-04T05:02:23.924Z,73380.88
2023-03-04T05:02:58.799Z,73376.88
2023-03-04T05:03:31.232Z,73376.88
2023-03-04T05:04:03.640Z,73378.88
2023-03-04T05:04:38.508Z,73378.88
2023-03-04T05:05:11.149Z,73380.88
2023-03-04T05:05:43.393Z,73374.88
2023-03-04T05:06:18.946Z,73380.88
2023-03-04T05:06:51.219Z,73380.88
2023-03-04T05:07:23.464Z,73376.88
2023-03-04T05:07:58.315Z,73376.88
2023-03-04T05:08:30.590Z,73368.88
2023-03-04T05:09:02.934Z,73378.88
2023-03-04T05:09:37.796Z,73368.88
2023-03-04T05:10:11.479Z,73380.88
2023-03-04T05:10:43.710Z,73380.88
2023-03-04T05:11:19.571Z,73382.84
2023-03-04T05:11:51.804Z,73380.88
2023-03-04T05:12:24.044Z,73372.88
2023-03-04T05:13:01.478Z,73378.88
2023-03-04T05:13:33.909Z,73378.88
2023-03-04T05:14:06.147Z,73380.88
2023-03-04T05:14:41.041Z,73376.88
2023-03-04T05:15:13.376Z,73376.88
2023-03-04T05:15:45.799Z,73376.88
2023-03-04T05:16:20.784Z,73380.88
2023-03-04T05:16:53.189Z,73374.88
2023-03-04T05:17:25.520Z,73380.88
2023-03-04T05:17:57.814Z,73376.88
2023-03-04T05:18:32.803Z,73376.88
2023-03-04T05:19:05.076Z,73378.88
2023-03-04T05:19:37.347Z,73372.88
2023-03-04T05:20:13.850Z,73380.88
2023-03-04T05:20:46.146Z,73380.88
2023-03-04T05:21:18.578Z,73380.88
2023-03-04T05:21:53.442Z,73378.88
2023-03-04T05:22:26.094Z,73376.88
2023-03-04T05:22:58.380Z,73378.88
2023-03-04T05:23:35.173Z,73380.88
2023-03-04T05:24:08.125Z,73376.88
2023-03-04T05:24:40.347Z,73376.88
2023-03-04T05:25:15.239Z,73382.84
2023-03-04T05:25:47.690Z,73376.88
2023-03-04T05:26:20.043Z,73376.88
2023-03-04T05:26:54.889Z,73374.88
2023-03-04T05:27:27.121Z,73380.88
2023-03-04T05:28:02.305Z,73372.88
2023-03-04T05:28:37.752Z,73376.88
2023-03-04T05:29:10.083Z,73368.88
2023-03-04T05:29:44.844Z,73380.88
2023-03-04T05:30:20.171Z,73372.88
2023-03-04T05:30:52.445Z,73378.88
2023-03-04T05:31:27.418Z,73372.88
2023-03-04T05:31:59.947Z,73380.88
2023-03-04T05:32:32.199Z,73370.88
2023-03-04T05:33:04.700Z,73376.88
2023-03-04T05:33:40.024Z,73380.88
2023-03-04T05:34:12.261Z,73380.88
2023-03-04T05:34:44.519Z,73372.88
2023-03-04T05:35:16.896Z,73376.88
2023-03-04T05:35:52.276Z,73372.88
2023-03-04T05:36:24.562Z,73374.88
2023-03-04T05:36:56.797Z,73376.88
2023-03-04T05:37:29.061Z,73372.88
2023-03-04T05:38:03.931Z,73370.88
2023-03-04T05:38:36.336Z,73376.88
2023-03-04T05:39:08.591Z,73372.88
2023-03-04T05:39:43.432Z,73376.88
2023-03-04T05:40:15.892Z,73376.88
2023-03-04T05:40:48.962Z,73368.88
2023-03-04T05:41:23.897Z,73376.88
2023-03-04T05:41:56.180Z,73380.88
2023-03-04T05:42:28.470Z,73386.84
2023-03-04T05:43:05.965Z,73384.84
2023-03-04T05:43:42.879Z,73368.88
2023-03-04T05:44:15.229Z,73376.88
2023-03-04T05:44:51.048Z,73388.84
2023-03-04T05:45:25.281Z,73376.88
2023-03-04T05:45:57.844Z,73384.84
2023-03-04T05:46:33.772Z,73382.84
2023-03-04T05:47:06.249Z,73382.84
2023-03-04T05:47:38.599Z,73384.84
2023-03-04T05:48:13.471Z,73384.84
2023-03-04T05:48:45.772Z,73388.84
2023-03-04T05:49:18.306Z,73388.84
2023-03-04T05:49:53.152Z,73380.88
2023-03-04T05:50:25.538Z,73388.84
2023-03-04T05:51:00.051Z,73384.84
2023-03-04T05:51:34.932Z,73388.84
2023-03-04T05:52:07.200Z,73384.84
2023-03-04T05:52:40.509Z,73390.84
2023-03-04T05:53:15.357Z,73384.84
2023-03-04T05:53:47.776Z,73380.88
2023-03-04T05:54:20.064Z,73388.84
2023-03-04T05:54:54.915Z,73384.84
2023-03-04T05:55:30.048Z,73384.84
2023-03-04T05:56:07.693Z,73388.84
2023-03-04T05:56:42.554Z,73386.84
2023-03-04T05:57:15.816Z,73386.84
2023-03-04T05:57:48.359Z,73384.84
2023-03-04T05:58:25.892Z,73392.84
2023-03-04T05:58:58.459Z,73388.84
2023-03-04T05:59:30.719Z,73388.84
2023-03-04T06:00:09.486Z,73384.84
2023-03-04T06:00:45.028Z,73384.84
2023-03-04T06:01:20.438Z,73388.84
2023-03-04T06:01:52.727Z,73390.84
2023-03-04T06:02:25.086Z,73386.84
2023-03-04T06:03:00.170Z,73392.84
2023-03-04T06:03:32.879Z,73388.84
2023-03-04T06:04:05.515Z,73392.84
2023-03-04T06:04:40.356Z,73392.84
2023-03-04T06:05:13.990Z,73394.84
2023-03-04T06:05:46.244Z,73396.84
2023-03-04T06:06:21.292Z,73390.84
2023-03-04T06:06:53.596Z,73388.84
2023-03-04T06:07:25.928Z,73402.81
2023-03-04T06:08:00.799Z,73394.84
2023-03-04T06:08:33.213Z,73398.81
2023-03-04T06:09:05.508Z,73400.81
2023-03-04T06:09:40.529Z,73392.84
2023-03-04T06:10:15.212Z,73404.81
2023-03-04T06:10:47.467Z,73398.81
2023-03-04T06:11:22.324Z,73390.84
2023-03-04T06:11:54.593Z,73394.84
2023-03-04T06:12:28.882Z,73388.84
2023-03-04T06:13:03.711Z,73388.84
2023-03-04T06:13:39.027Z,73392.84
2023-03-04T06:14:11.326Z,73386.84
2023-03-04T06:14:46.218Z,73384.84
2023-03-04T06:15:18.725Z,73388.84
2023-03-04T06:15:55.111Z,73380.88
2023-03-04T06:16:30.154Z,73384.84
2023-03-04T06:17:02.460Z,73380.88
2023-03-04T06:17:34.705Z,73380.88
2023-03-04T06:18:09.632Z,73376.88
2023-03-04T06:18:41.919Z,73374.88
2023-03-04T06:19:14.236Z,73376.88
2023-03-04T06:19:49.073Z,73376.88
2023-03-04T06:20:21.513Z,73374.88
2023-03-04T06:21:01.211Z,73372.88
2023-03-04T06:21:33.453Z,73366.88
2023-03-04T06:22:05.942Z,73364.88
2023-03-04T06:22:40.810Z,73364.88
2023-03-04T06:23:13.064Z,73360.91
2023-03-04T06:23:45.772Z,73364.88
2023-03-04T06:24:20.792Z,73360.91
2023-03-04T06:24:53.023Z,73356.91
2023-03-04T06:25:28.170Z,73356.91
2023-03-04T06:26:00.996Z,73356.91
2023-03-04T06:26:33.341Z,73352.91
2023-03-04T06:27:08.596Z,73348.91
2023-03-04T06:27:40.852Z,73344.94
2023-03-04T06:28:13.079Z,73350.91
2023-03-04T06:28:50.518Z,73346.94
2023-03-04T06:29:23.178Z,73350.91
2023-03-04T06:29:55.417Z,73338.94
2023-03-04T06:30:31.748Z,73336.94
2023-03-04T06:31:04.208Z,73332.94
2023-03-04T06:31:36.539Z,73338.94
2023-03-04T06:32:08.886Z,73338.94
2023-03-04T06:32:44.462Z,73336.94
2023-03-04T06:33:16.691Z,73340.94
2023-03-04T06:33:48.973Z,73336.94
2023-03-04T06:34:24.278Z,73336.94
2023-03-04T06:34:56.608Z,73342.94
2023-03-04T06:35:29.003Z,73336.94
2023-03-04T06:36:03.887Z,73340.94
2023-03-04T06:36:36.112Z,73340.94
2023-03-04T06:37:08.368Z,73336.94